Ashton, WV

11:43 AM EDT on October 31, 2014 (GMT -0400)
The Linde Farm in Ashton | Change Station
CLOSE
Current Station
Personal Weather Station
Location: Ashton, WV
Elevation: 692 ft
Nearby Weather Stations

Elev 692 ft 38.58 °N, 82.08 °W | Updated 14 minutes ago

Overcast
Overcast
49.8 °F
Feels Like 50 °F
N
1.7
Wind Variable Wind from North

Today
High -- | Low -- °F
--% Chance of Precip.
Yesterday
High -- | Low -- °F
Precip. -- in
7:54 AM 6:29 PM
First Quarter, 56% visible
Pressure 29.97 in
Visibility 10.0 miles
Clouds Scattered Clouds 3500 ft
Overcast 5500 ft
Windchill 50 °F
Dew Point 46 °F
Humidity 88%
Rainfall 0.00 in
Snow Depth Not available.
UV 1 out of 12
Pollen .10 out of 12
Air Quality Not available.
Flu Activity Not available.
METAR K3I2 311535Z AUTO 00000KT 10SM SCT035 OVC055 10/05 A2997 RMK AO2

More Conditions Fewer Conditions

Pressure 29.97 in
Visibility 10.0 miles
Clouds Scattered Clouds 3500 ft
Overcast 5500 ft
Windchill 50 °F
Dew Point 46 °F
Humidity 88%
Rainfall 0.00 in
Snow Depth Not available.
UV 1 out of 12
Pollen .10 out of 12
Air Quality Not available.
Flu Activity Not available.
METAR K3I2 311535Z AUTO 00000KT 10SM SCT035 OVC055 10/05 A2997 RMK AO2

More Conditions Fewer Conditions

10-Day Weather Forecast

Almanac

Astronomy

Oct. 31, 2014 Rise Set
Actual Time
Civil Twilight
Nautical Twilight
Astronomical Twilight
Moon
Length of Visible Light
Length of Day
Tomorrow will be .
, % of the Moon is Illuminated

Today's Extremes

State Highs State Lows

Community

WunderPhotos

Upload Photos

1,766,644 photos uploaded!

WunderBlogs® & News

Nearby

Air Quality

  Air Quality AQ Index Pollutant
Not available.

Snow Depth

Station Depth Elevation

Earthquake Activity

City Distance Mag. Time & Date
Minimum magnitude displayed is 2.5.

Coastal Water Temperatures

Place Temperature

Nearby Weather Stations